sensor_id;sensor_type;location;lat;lon;timestamp;P1;durP1;ratioP1;P2;durP2;ratioP2
66185;SDS011;58178;49.552;27.922;2022-08-19T00:00:45;17.45;;;15.98;;
66185;SDS011;58178;49.552;27.922;2022-08-19T00:03:11;18.35;;;16.08;;
66185;SDS011;58178;49.552;27.922;2022-08-19T00:05:37;17.88;;;16.02;;
66185;SDS011;58178;49.552;27.922;2022-08-19T00:08:03;16.30;;;14.80;;
66185;SDS011;58178;49.552;27.922;2022-08-19T00:10:29;17.33;;;15.77;;
66185;SDS011;58178;49.552;27.922;2022-08-19T00:12:54;17.05;;;15.27;;
66185;SDS011;58178;49.552;27.922;2022-08-19T00:15:21;18.17;;;16.38;;
66185;SDS011;58178;49.552;27.922;2022-08-19T00:17:47;17.20;;;15.35;;
66185;SDS011;58178;49.552;27.922;2022-08-19T00:20:15;17.23;;;15.35;;
66185;SDS011;58178;49.552;27.922;2022-08-19T00:22:43;18.23;;;16.35;;
66185;SDS011;58178;49.552;27.922;2022-08-19T00:25:09;17.10;;;15.52;;
66185;SDS011;58178;49.552;27.922;2022-08-19T00:27:36;21.30;;;16.73;;
66185;SDS011;58178;49.552;27.922;2022-08-19T00:30:02;18.05;;;16.40;;
66185;SDS011;58178;49.552;27.922;2022-08-19T00:32:29;18.95;;;17.05;;
66185;SDS011;58178;49.552;27.922;2022-08-19T00:34:55;19.35;;;17.42;;
66185;SDS011;58178;49.552;27.922;2022-08-19T00:37:22;20.10;;;17.90;;
66185;SDS011;58178;49.552;27.922;2022-08-19T00:39:48;19.75;;;17.85;;
66185;SDS011;58178;49.552;27.922;2022-08-19T00:42:16;20.40;;;17.95;;
66185;SDS011;58178;49.552;27.922;2022-08-19T00:44:42;19.63;;;17.10;;
66185;SDS011;58178;49.552;27.922;2022-08-19T00:47:08;19.95;;;18.10;;
66185;SDS011;58178;49.552;27.922;2022-08-19T00:49:49;21.23;;;18.65;;
66185;SDS011;58178;49.552;27.922;2022-08-19T00:52:18;21.67;;;19.48;;
66185;SDS011;58178;49.552;27.922;2022-08-19T00:57:17;22.35;;;19.23;;
66185;SDS011;58178;49.552;27.922;2022-08-19T00:59:46;21.23;;;19.05;;
66185;SDS011;58178;49.552;27.922;2022-08-19T01:02:14;21.92;;;19.75;;
66185;SDS011;58178;49.552;27.922;2022-08-19T01:04:40;21.20;;;18.95;;
66185;SDS011;58178;49.552;27.922;2022-08-19T01:07:06;22.00;;;18.98;;
66185;SDS011;58178;49.552;27.922;2022-08-19T01:09:32;22.52;;;19.63;;
66185;SDS011;58178;49.552;27.922;2022-08-19T01:11:59;22.40;;;19.98;;
66185;SDS011;58178;49.552;27.922;2022-08-19T01:14:25;27.27;;;19.88;;
66185;SDS011;58178;49.552;27.922;2022-08-19T01:16:51;22.60;;;20.20;;
66185;SDS011;58178;49.552;27.922;2022-08-19T01:19:29;22.45;;;20.25;;
66185;SDS011;58178;49.552;27.922;2022-08-19T01:22:01;23.25;;;20.85;;
66185;SDS011;58178;49.552;27.922;2022-08-19T01:24:35;22.17;;;19.80;;
66185;SDS011;58178;49.552;27.922;2022-08-19T01:27:03;22.00;;;19.67;;
66185;SDS011;58178;49.552;27.922;2022-08-19T01:29:30;23.33;;;20.88;;
66185;SDS011;58178;49.552;27.922;2022-08-19T01:31:55;23.13;;;20.63;;
66185;SDS011;58178;49.552;27.922;2022-08-19T01:34:21;26.02;;;21.27;;
66185;SDS011;58178;49.552;27.922;2022-08-19T01:36:47;22.17;;;19.85;;
66185;SDS011;58178;49.552;27.922;2022-08-19T01:39:18;23.58;;;21.00;;
66185;SDS011;58178;49.552;27.922;2022-08-19T01:41:46;26.27;;;20.27;;
66185;SDS011;58178;49.552;27.922;2022-08-19T01:44:12;27.20;;;21.50;;
66185;SDS011;58178;49.552;27.922;2022-08-19T01:46:39;22.80;;;20.40;;
66185;SDS011;58178;49.552;27.922;2022-08-19T01:49:05;23.65;;;21.10;;
66185;SDS011;58178;49.552;27.922;2022-08-19T01:51:31;25.65;;;21.40;;
66185;SDS011;58178;49.552;27.922;2022-08-19T01:53:57;24.88;;;22.17;;
66185;SDS011;58178;49.552;27.922;2022-08-19T01:56:23;25.45;;;22.08;;
66185;SDS011;58178;49.552;27.922;2022-08-19T01:58:49;25.60;;;22.90;;
66185;SDS011;58178;49.552;27.922;2022-08-19T02:01:19;25.75;;;22.58;;
66185;SDS011;58178;49.552;27.922;2022-08-19T02:03:45;25.27;;;22.42;;
66185;SDS011;58178;49.552;27.922;2022-08-19T02:06:10;24.80;;;22.40;;
66185;SDS011;58178;49.552;27.922;2022-08-19T02:08:38;25.27;;;21.98;;
66185;SDS011;58178;49.552;27.922;2022-08-19T02:11:04;29.00;;;22.83;;
66185;SDS011;58178;49.552;27.922;2022-08-19T02:13:31;26.75;;;23.70;;
66185;SDS011;58178;49.552;27.922;2022-08-19T02:15:57;29.92;;;24.08;;
66185;SDS011;58178;49.552;27.922;2022-08-19T02:18:22;28.55;;;22.80;;
66185;SDS011;58178;49.552;27.922;2022-08-19T02:20:48;32.63;;;25.33;;
66185;SDS011;58178;49.552;27.922;2022-08-19T02:23:15;28.45;;;25.38;;
66185;SDS011;58178;49.552;27.922;2022-08-19T02:25:42;33.30;;;25.08;;
66185;SDS011;58178;49.552;27.922;2022-08-19T02:28:09;33.05;;;27.02;;
66185;SDS011;58178;49.552;27.922;2022-08-19T02:30:36;33.45;;;25.55;;
66185;SDS011;58178;49.552;27.922;2022-08-19T02:33:03;33.85;;;26.55;;
66185;SDS011;58178;49.552;27.922;2022-08-19T02:35:29;32.70;;;26.92;;
66185;SDS011;58178;49.552;27.922;2022-08-19T02:37:55;28.73;;;25.55;;
66185;SDS011;58178;49.552;27.922;2022-08-19T02:40:39;29.30;;;24.95;;
66185;SDS011;58178;49.552;27.922;2022-08-19T02:43:06;30.58;;;26.67;;
66185;SDS011;58178;49.552;27.922;2022-08-19T02:45:33;31.75;;;27.65;;
66185;SDS011;58178;49.552;27.922;2022-08-19T02:48:00;31.85;;;26.85;;
66185;SDS011;58178;49.552;27.922;2022-08-19T02:50:26;33.90;;;28.95;;
66185;SDS011;58178;49.552;27.922;2022-08-19T02:52:51;35.78;;;28.05;;
66185;SDS011;58178;49.552;27.922;2022-08-19T02:55:17;33.45;;;28.08;;
66185;SDS011;58178;49.552;27.922;2022-08-19T02:57:43;33.38;;;27.63;;
66185;SDS011;58178;49.552;27.922;2022-08-19T03:00:09;35.85;;;29.80;;
66185;SDS011;58178;49.552;27.922;2022-08-19T03:02:39;41.28;;;30.58;;
66185;SDS011;58178;49.552;27.922;2022-08-19T03:05:05;37.10;;;31.00;;
66185;SDS011;58178;49.552;27.922;2022-08-19T03:07:32;37.83;;;30.75;;
66185;SDS011;58178;49.552;27.922;2022-08-19T03:09:58;38.15;;;30.02;;
66185;SDS011;58178;49.552;27.922;2022-08-19T03:12:24;37.35;;;30.75;;
66185;SDS011;58178;49.552;27.922;2022-08-19T03:14:49;35.40;;;30.80;;
66185;SDS011;58178;49.552;27.922;2022-08-19T03:17:16;37.33;;;30.63;;
66185;SDS011;58178;49.552;27.922;2022-08-19T03:19:42;35.60;;;30.10;;
66185;SDS011;58178;49.552;27.922;2022-08-19T03:22:08;40.67;;;30.52;;
66185;SDS011;58178;49.552;27.922;2022-08-19T03:24:34;36.58;;;29.40;;
66185;SDS011;58178;49.552;27.922;2022-08-19T03:27:00;37.03;;;28.98;;
66185;SDS011;58178;49.552;27.922;2022-08-19T03:29:26;38.33;;;31.23;;
66185;SDS011;58178;49.552;27.922;2022-08-19T03:31:54;40.75;;;29.95;;
66185;SDS011;58178;49.552;27.922;2022-08-19T03:34:24;39.80;;;30.45;;
66185;SDS011;58178;49.552;27.922;2022-08-19T03:36:54;41.28;;;30.88;;
66185;SDS011;58178;49.552;27.922;2022-08-19T03:39:22;43.03;;;32.35;;
66185;SDS011;58178;49.552;27.922;2022-08-19T03:41:51;42.00;;;32.65;;
66185;SDS011;58178;49.552;27.922;2022-08-19T03:44:19;41.65;;;32.58;;
66185;SDS011;58178;49.552;27.922;2022-08-19T03:46:47;43.78;;;33.60;;
66185;SDS011;58178;49.552;27.922;2022-08-19T03:49:15;43.65;;;32.25;;
66185;SDS011;58178;49.552;27.922;2022-08-19T03:51:41;43.08;;;33.92;;
66185;SDS011;58178;49.552;27.922;2022-08-19T03:54:09;46.95;;;34.83;;
66185;SDS011;58178;49.552;27.922;2022-08-19T03:56:37;45.30;;;34.65;;
66185;SDS011;58178;49.552;27.922;2022-08-19T03:59:03;45.83;;;34.85;;
66185;SDS011;58178;49.552;27.922;2022-08-19T04:01:30;53.90;;;36.85;;
66185;SDS011;58178;49.552;27.922;2022-08-19T04:03:56;51.55;;;36.63;;
66185;SDS011;58178;49.552;27.922;2022-08-19T04:06:24;51.75;;;37.13;;
66185;SDS011;58178;49.552;27.922;2022-08-19T04:08:52;53.22;;;37.40;;
66185;SDS011;58178;49.552;27.922;2022-08-19T04:11:25;52.90;;;37.03;;
66185;SDS011;58178;49.552;27.922;2022-08-19T04:13:54;48.40;;;35.90;;
66185;SDS011;58178;49.552;27.922;2022-08-19T04:16:21;45.05;;;35.45;;
66185;SDS011;58178;49.552;27.922;2022-08-19T04:18:48;48.40;;;35.85;;
66185;SDS011;58178;49.552;27.922;2022-08-19T04:21:19;47.17;;;36.97;;
66185;SDS011;58178;49.552;27.922;2022-08-19T04:23:47;52.40;;;38.08;;
66185;SDS011;58178;49.552;27.922;2022-08-19T04:26:13;50.53;;;37.70;;
66185;SDS011;58178;49.552;27.922;2022-08-19T04:28:40;47.40;;;36.50;;
66185;SDS011;58178;49.552;27.922;2022-08-19T04:31:11;51.15;;;35.88;;
66185;SDS011;58178;49.552;27.922;2022-08-19T04:33:39;49.07;;;36.20;;
66185;SDS011;58178;49.552;27.922;2022-08-19T04:36:05;50.88;;;36.08;;
66185;SDS011;58178;49.552;27.922;2022-08-19T04:38:30;53.63;;;36.08;;
66185;SDS011;58178;49.552;27.922;2022-08-19T04:40:56;50.33;;;36.67;;
66185;SDS011;58178;49.552;27.922;2022-08-19T04:43:40;51.22;;;36.70;;
66185;SDS011;58178;49.552;27.922;2022-08-19T04:46:09;50.35;;;36.30;;
66185;SDS011;58178;49.552;27.922;2022-08-19T04:48:36;51.20;;;37.60;;
66185;SDS011;58178;49.552;27.922;2022-08-19T04:51:06;51.35;;;37.05;;
66185;SDS011;58178;49.552;27.922;2022-08-19T04:53:34;48.95;;;35.45;;
66185;SDS011;58178;49.552;27.922;2022-08-19T04:56:04;49.63;;;35.92;;
66185;SDS011;58178;49.552;27.922;2022-08-19T05:01:00;52.70;;;37.33;;
66185;SDS011;58178;49.552;27.922;2022-08-19T05:03:26;49.22;;;35.03;;
66185;SDS011;58178;49.552;27.922;2022-08-19T05:05:52;53.33;;;36.38;;
66185;SDS011;58178;49.552;27.922;2022-08-19T05:08:19;50.10;;;35.38;;
66185;SDS011;58178;49.552;27.922;2022-08-19T05:10:47;49.05;;;36.45;;
66185;SDS011;58178;49.552;27.922;2022-08-19T05:13:14;53.05;;;35.75;;
66185;SDS011;58178;49.552;27.922;2022-08-19T05:15:41;50.50;;;36.80;;
66185;SDS011;58178;49.552;27.922;2022-08-19T05:18:06;49.78;;;36.03;;
66185;SDS011;58178;49.552;27.922;2022-08-19T05:20:51;51.75;;;35.17;;
66185;SDS011;58178;49.552;27.922;2022-08-19T05:23:35;61.47;;;38.70;;
66185;SDS011;58178;49.552;27.922;2022-08-19T05:26:00;59.42;;;39.63;;
66185;SDS011;58178;49.552;27.922;2022-08-19T05:28:26;58.25;;;38.88;;
66185;SDS011;58178;49.552;27.922;2022-08-19T05:30:52;53.28;;;37.97;;
66185;SDS011;58178;49.552;27.922;2022-08-19T05:33:20;58.90;;;38.33;;
66185;SDS011;58178;49.552;27.922;2022-08-19T05:35:47;59.85;;;38.25;;
66185;SDS011;58178;49.552;27.922;2022-08-19T05:38:14;57.40;;;38.13;;
66185;SDS011;58178;49.552;27.922;2022-08-19T05:40:41;53.63;;;37.40;;
66185;SDS011;58178;49.552;27.922;2022-08-19T05:43:10;58.63;;;36.90;;
66185;SDS011;58178;49.552;27.922;2022-08-19T05:45:39;50.13;;;37.17;;
66185;SDS011;58178;49.552;27.922;2022-08-19T05:48:06;48.30;;;35.90;;
66185;SDS011;58178;49.552;27.922;2022-08-19T05:50:32;57.55;;;36.50;;
66185;SDS011;58178;49.552;27.922;2022-08-19T05:52:57;44.83;;;34.28;;
66185;SDS011;58178;49.552;27.922;2022-08-19T05:55:23;44.60;;;33.95;;
66185;SDS011;58178;49.552;27.922;2022-08-19T05:57:49;43.65;;;34.30;;
66185;SDS011;58178;49.552;27.922;2022-08-19T06:00:15;43.17;;;31.35;;
66185;SDS011;58178;49.552;27.922;2022-08-19T06:02:41;40.78;;;32.83;;
66185;SDS011;58178;49.552;27.922;2022-08-19T06:05:07;44.45;;;31.98;;
66185;SDS011;58178;49.552;27.922;2022-08-19T06:07:37;40.65;;;30.88;;
66185;SDS011;58178;49.552;27.922;2022-08-19T06:10:04;37.60;;;30.88;;
66185;SDS011;58178;49.552;27.922;2022-08-19T06:12:32;40.50;;;31.55;;
66185;SDS011;58178;49.552;27.922;2022-08-19T06:15:00;33.75;;;28.30;;
66185;SDS011;58178;49.552;27.922;2022-08-19T06:17:36;37.38;;;28.30;;
66185;SDS011;58178;49.552;27.922;2022-08-19T06:20:03;33.90;;;28.40;;
66185;SDS011;58178;49.552;27.922;2022-08-19T06:22:41;34.53;;;27.90;;
66185;SDS011;58178;49.552;27.922;2022-08-19T06:25:07;30.65;;;25.83;;
66185;SDS011;58178;49.552;27.922;2022-08-19T06:27:37;32.85;;;26.05;;
66185;SDS011;58178;49.552;27.922;2022-08-19T06:30:03;30.10;;;24.00;;
66185;SDS011;58178;49.552;27.922;2022-08-19T06:32:29;31.00;;;24.08;;
66185;SDS011;58178;49.552;27.922;2022-08-19T06:34:55;30.73;;;22.98;;
66185;SDS011;58178;49.552;27.922;2022-08-19T06:37:21;26.92;;;23.08;;
66185;SDS011;58178;49.552;27.922;2022-08-19T06:39:47;28.98;;;22.17;;
66185;SDS011;58178;49.552;27.922;2022-08-19T06:42:13;27.45;;;22.35;;
66185;SDS011;58178;49.552;27.922;2022-08-19T06:44:43;29.05;;;20.27;;
66185;SDS011;58178;49.552;27.922;2022-08-19T06:47:11;27.15;;;20.50;;
66185;SDS011;58178;49.552;27.922;2022-08-19T06:49:38;23.00;;;19.17;;
66185;SDS011;58178;49.552;27.922;2022-08-19T06:52:04;27.35;;;19.92;;
66185;SDS011;58178;49.552;27.922;2022-08-19T06:54:30;26.33;;;18.85;;
66185;SDS011;58178;49.552;27.922;2022-08-19T06:57:00;22.88;;;19.05;;
66185;SDS011;58178;49.552;27.922;2022-08-19T06:59:29;22.87;;;17.87;;
66185;SDS011;58178;49.552;27.922;2022-08-19T07:01:58;23.67;;;18.52;;
66185;SDS011;58178;49.552;27.922;2022-08-19T07:04:26;24.10;;;18.95;;
66185;SDS011;58178;49.552;27.922;2022-08-19T07:07:07;20.98;;;17.65;;
66185;SDS011;58178;49.552;27.922;2022-08-19T07:09:38;19.77;;;17.70;;
66185;SDS011;58178;49.552;27.922;2022-08-19T07:12:06;19.05;;;16.85;;
66185;SDS011;58178;49.552;27.922;2022-08-19T07:14:34;19.63;;;16.45;;
66185;SDS011;58178;49.552;27.922;2022-08-19T07:17:04;23.15;;;18.08;;
66185;SDS011;58178;49.552;27.922;2022-08-19T07:19:32;20.75;;;15.43;;
66185;SDS011;58178;49.552;27.922;2022-08-19T07:22:00;23.17;;;16.00;;
66185;SDS011;58178;49.552;27.922;2022-08-19T07:24:27;18.23;;;14.85;;
66185;SDS011;58178;49.552;27.922;2022-08-19T07:26:55;23.90;;;15.65;;
66185;SDS011;58178;49.552;27.922;2022-08-19T07:29:25;19.70;;;14.20;;
66185;SDS011;58178;49.552;27.922;2022-08-19T07:31:53;18.17;;;13.68;;
66185;SDS011;58178;49.552;27.922;2022-08-19T07:34:21;19.40;;;14.45;;
66185;SDS011;58178;49.552;27.922;2022-08-19T07:36:48;21.63;;;14.80;;
66185;SDS011;58178;49.552;27.922;2022-08-19T07:39:17;19.10;;;14.07;;
66185;SDS011;58178;49.552;27.922;2022-08-19T07:44:15;18.27;;;12.90;;
66185;SDS011;58178;49.552;27.922;2022-08-19T07:46:42;16.95;;;12.15;;
66185;SDS011;58178;49.552;27.922;2022-08-19T07:49:11;21.23;;;12.73;;
66185;SDS011;58178;49.552;27.922;2022-08-19T07:51:42;20.20;;;12.23;;
66185;SDS011;58178;49.552;27.922;2022-08-19T07:54:08;15.00;;;10.88;;
66185;SDS011;58178;49.552;27.922;2022-08-19T07:56:34;15.63;;;10.30;;
66185;SDS011;58178;49.552;27.922;2022-08-19T07:59:00;19.30;;;11.07;;
66185;SDS011;58178;49.552;27.922;2022-08-19T08:01:26;19.58;;;12.07;;
66185;SDS011;58178;49.552;27.922;2022-08-19T08:03:53;18.58;;;11.38;;
66185;SDS011;58178;49.552;27.922;2022-08-19T08:06:39;20.05;;;11.02;;
66185;SDS011;58178;49.552;27.922;2022-08-19T08:09:26;15.93;;;11.77;;
66185;SDS011;58178;49.552;27.922;2022-08-19T08:11:59;18.15;;;12.30;;
66185;SDS011;58178;49.552;27.922;2022-08-19T08:14:31;18.00;;;12.30;;
66185;SDS011;58178;49.552;27.922;2022-08-19T08:16:57;17.10;;;11.27;;
66185;SDS011;58178;49.552;27.922;2022-08-19T08:19:25;18.50;;;11.52;;
66185;SDS011;58178;49.552;27.922;2022-08-19T08:21:51;16.85;;;12.10;;
66185;SDS011;58178;49.552;27.922;2022-08-19T08:24:21;15.68;;;11.35;;
66185;SDS011;58178;49.552;27.922;2022-08-19T08:26:47;17.23;;;11.00;;
66185;SDS011;58178;49.552;27.922;2022-08-19T08:29:14;19.42;;;10.38;;
66185;SDS011;58178;49.552;27.922;2022-08-19T08:31:41;12.38;;;8.85;;
66185;SDS011;58178;49.552;27.922;2022-08-19T08:34:09;15.48;;;9.88;;
66185;SDS011;58178;49.552;27.922;2022-08-19T08:36:36;12.50;;;9.25;;
66185;SDS011;58178;49.552;27.922;2022-08-19T08:39:06;14.95;;;8.88;;
66185;SDS011;58178;49.552;27.922;2022-08-19T08:47:18;12.20;;;9.02;;
66185;SDS011;58178;49.552;27.922;2022-08-19T08:49:48;16.13;;;8.77;;
66185;SDS011;58178;49.552;27.922;2022-08-19T08:52:22;12.20;;;8.60;;
66185;SDS011;58178;49.552;27.922;2022-08-19T08:54:52;12.38;;;8.75;;
66185;SDS011;58178;49.552;27.922;2022-08-19T08:57:21;12.68;;;8.02;;
66185;SDS011;58178;49.552;27.922;2022-08-19T08:59:52;10.88;;;7.75;;
66185;SDS011;58178;49.552;27.922;2022-08-19T09:02:20;12.05;;;7.43;;
66185;SDS011;58178;49.552;27.922;2022-08-19T09:04:45;13.55;;;7.38;;
66185;SDS011;58178;49.552;27.922;2022-08-19T09:07:18;9.05;;;6.55;;
66185;SDS011;58178;49.552;27.922;2022-08-19T09:10:39;8.50;;;6.70;;
66185;SDS011;58178;49.552;27.922;2022-08-19T09:21:07;11.25;;;5.85;;
66185;SDS011;58178;49.552;27.922;2022-08-19T09:23:34;10.35;;;5.10;;
66185;SDS011;58178;49.552;27.922;2022-08-19T09:26:01;13.68;;;5.53;;
66185;SDS011;58178;49.552;27.922;2022-08-19T09:28:39;9.65;;;5.07;;
66185;SDS011;58178;49.552;27.922;2022-08-19T09:31:08;8.60;;;4.90;;
66185;SDS011;58178;49.552;27.922;2022-08-19T09:33:37;8.50;;;4.63;;
66185;SDS011;58178;49.552;27.922;2022-08-19T09:36:05;9.63;;;5.38;;
66185;SDS011;58178;49.552;27.922;2022-08-19T09:38:32;8.82;;;4.68;;
66185;SDS011;58178;49.552;27.922;2022-08-19T09:41:06;6.93;;;4.82;;
66185;SDS011;58178;49.552;27.922;2022-08-19T09:43:33;11.18;;;4.38;;
66185;SDS011;58178;49.552;27.922;2022-08-19T09:46:01;19.73;;;4.63;;
66185;SDS011;58178;49.552;27.922;2022-08-19T09:48:28;6.30;;;2.95;;
66185;SDS011;58178;49.552;27.922;2022-08-19T09:50:54;3.50;;;3.17;;
66185;SDS011;58178;49.552;27.922;2022-08-19T09:53:20;6.25;;;3.55;;
66185;SDS011;58178;49.552;27.922;2022-08-19T09:55:47;5.30;;;3.35;;
66185;SDS011;58178;49.552;27.922;2022-08-19T09:58:13;9.07;;;3.85;;
66185;SDS011;58178;49.552;27.922;2022-08-19T10:00:39;8.02;;;3.65;;
66185;SDS011;58178;49.552;27.922;2022-08-19T10:03:04;7.32;;;3.10;;
66185;SDS011;58178;49.552;27.922;2022-08-19T10:05:30;5.40;;;2.33;;
66185;SDS011;58178;49.552;27.922;2022-08-19T10:08:15;4.93;;;2.00;;
66185;SDS011;58178;49.552;27.922;2022-08-19T10:10:46;10.13;;;3.17;;
66185;SDS011;58178;49.552;27.922;2022-08-19T10:13:13;4.95;;;2.90;;
66185;SDS011;58178;49.552;27.922;2022-08-19T10:15:39;6.43;;;2.83;;
66185;SDS011;58178;49.552;27.922;2022-08-19T10:18:06;5.22;;;2.75;;
66185;SDS011;58178;49.552;27.922;2022-08-19T10:20:32;5.07;;;2.60;;
66185;SDS011;58178;49.552;27.922;2022-08-19T10:23:00;4.55;;;2.65;;
66185;SDS011;58178;49.552;27.922;2022-08-19T10:25:26;5.50;;;2.65;;
66185;SDS011;58178;49.552;27.922;2022-08-19T10:27:52;4.78;;;2.47;;
66185;SDS011;58178;49.552;27.922;2022-08-19T10:30:18;9.88;;;2.80;;
66185;SDS011;58178;49.552;27.922;2022-08-19T10:32:44;5.80;;;2.88;;
66185;SDS011;58178;49.552;27.922;2022-08-19T10:35:11;5.70;;;2.95;;
66185;SDS011;58178;49.552;27.922;2022-08-19T10:37:37;8.50;;;2.80;;
66185;SDS011;58178;49.552;27.922;2022-08-19T10:40:04;6.50;;;2.50;;
66185;SDS011;58178;49.552;27.922;2022-08-19T10:42:31;10.50;;;3.17;;
66185;SDS011;58178;49.552;27.922;2022-08-19T10:44:57;6.05;;;3.00;;
66185;SDS011;58178;49.552;27.922;2022-08-19T10:47:23;6.47;;;3.70;;
66185;SDS011;58178;49.552;27.922;2022-08-19T10:49:49;5.80;;;2.83;;
66185;SDS011;58178;49.552;27.922;2022-08-19T10:52:33;5.93;;;2.65;;
66185;SDS011;58178;49.552;27.922;2022-08-19T10:55:00;6.38;;;3.03;;
66185;SDS011;58178;49.552;27.922;2022-08-19T10:57:47;5.78;;;2.70;;
66185;SDS011;58178;49.552;27.922;2022-08-19T11:00:13;6.75;;;3.45;;
66185;SDS011;58178;49.552;27.922;2022-08-19T11:02:39;6.60;;;2.78;;
66185;SDS011;58178;49.552;27.922;2022-08-19T11:05:06;5.00;;;2.60;;
66185;SDS011;58178;49.552;27.922;2022-08-19T11:07:35;6.13;;;2.58;;
66185;SDS011;58178;49.552;27.922;2022-08-19T11:10:03;4.28;;;2.58;;
66185;SDS011;58178;49.552;27.922;2022-08-19T11:12:29;4.82;;;2.40;;
66185;SDS011;58178;49.552;27.922;2022-08-19T11:14:55;6.05;;;2.35;;
66185;SDS011;58178;49.552;27.922;2022-08-19T11:17:20;5.50;;;2.47;;
66185;SDS011;58178;49.552;27.922;2022-08-19T11:19:48;3.63;;;3.00;;
66185;SDS011;58178;49.552;27.922;2022-08-19T11:22:14;5.95;;;2.60;;
66185;SDS011;58178;49.552;27.922;2022-08-19T11:24:40;3.00;;;2.10;;
66185;SDS011;58178;49.552;27.922;2022-08-19T11:27:07;7.50;;;2.42;;
66185;SDS011;58178;49.552;27.922;2022-08-19T11:29:34;6.95;;;2.72;;
66185;SDS011;58178;49.552;27.922;2022-08-19T11:32:05;4.10;;;2.20;;
66185;SDS011;58178;49.552;27.922;2022-08-19T11:34:32;3.97;;;2.40;;
66185;SDS011;58178;49.552;27.922;2022-08-19T11:36:58;6.45;;;2.88;;
66185;SDS011;58178;49.552;27.922;2022-08-19T11:39:25;6.20;;;2.95;;
66185;SDS011;58178;49.552;27.922;2022-08-19T11:41:52;6.95;;;2.90;;
66185;SDS011;58178;49.552;27.922;2022-08-19T11:44:17;6.75;;;2.63;;
66185;SDS011;58178;49.552;27.922;2022-08-19T11:46:44;6.85;;;2.63;;
66185;SDS011;58178;49.552;27.922;2022-08-19T11:49:11;3.92;;;2.78;;
66185;SDS011;58178;49.552;27.922;2022-08-19T11:51:37;5.13;;;2.45;;
66185;SDS011;58178;49.552;27.922;2022-08-19T11:54:04;6.10;;;3.17;;
66185;SDS011;58178;49.552;27.922;2022-08-19T11:56:30;6.85;;;2.95;;
66185;SDS011;58178;49.552;27.922;2022-08-19T11:58:57;6.18;;;3.13;;
66185;SDS011;58178;49.552;27.922;2022-08-19T12:01:24;5.38;;;2.75;;
66185;SDS011;58178;49.552;27.922;2022-08-19T12:03:51;5.10;;;2.63;;
66185;SDS011;58178;49.552;27.922;2022-08-19T12:06:22;8.50;;;2.70;;
66185;SDS011;58178;49.552;27.922;2022-08-19T12:08:53;5.32;;;2.58;;
66185;SDS011;58178;49.552;27.922;2022-08-19T12:11:23;3.75;;;2.30;;
66185;SDS011;58178;49.552;27.922;2022-08-19T12:13:50;4.82;;;2.38;;
66185;SDS011;58178;49.552;27.922;2022-08-19T12:16:17;5.57;;;2.38;;
66185;SDS011;58178;49.552;27.922;2022-08-19T12:18:44;5.97;;;2.30;;
66185;SDS011;58178;49.552;27.922;2022-08-19T12:21:16;7.55;;;2.47;;
66185;SDS011;58178;49.552;27.922;2022-08-19T12:23:46;5.28;;;2.60;;
66185;SDS011;58178;49.552;27.922;2022-08-19T12:26:12;3.60;;;2.08;;
66185;SDS011;58178;49.552;27.922;2022-08-19T12:28:38;3.72;;;2.47;;
66185;SDS011;58178;49.552;27.922;2022-08-19T12:31:04;6.10;;;2.50;;
66185;SDS011;58178;49.552;27.922;2022-08-19T12:33:30;8.63;;;5.07;;
66185;SDS011;58178;49.552;27.922;2022-08-19T12:35:59;3.17;;;2.60;;
66185;SDS011;58178;49.552;27.922;2022-08-19T12:38:27;4.05;;;2.95;;
66185;SDS011;58178;49.552;27.922;2022-08-19T12:40:53;4.13;;;2.70;;
66185;SDS011;58178;49.552;27.922;2022-08-19T12:43:19;4.88;;;2.63;;
66185;SDS011;58178;49.552;27.922;2022-08-19T12:45:45;5.60;;;2.80;;
66185;SDS011;58178;49.552;27.922;2022-08-19T12:48:11;4.82;;;2.90;;
66185;SDS011;58178;49.552;27.922;2022-08-19T12:50:41;4.95;;;3.00;;
66185;SDS011;58178;49.552;27.922;2022-08-19T12:53:07;6.03;;;2.50;;
66185;SDS011;58178;49.552;27.922;2022-08-19T12:55:33;5.07;;;1.98;;
66185;SDS011;58178;49.552;27.922;2022-08-19T12:57:59;5.38;;;2.33;;
66185;SDS011;58178;49.552;27.922;2022-08-19T13:00:28;2.50;;;1.80;;
66185;SDS011;58178;49.552;27.922;2022-08-19T13:02:57;7.60;;;2.05;;
66185;SDS011;58178;49.552;27.922;2022-08-19T13:05:25;3.38;;;1.92;;
66185;SDS011;58178;49.552;27.922;2022-08-19T13:07:53;7.63;;;2.13;;
66185;SDS011;58178;49.552;27.922;2022-08-19T13:10:21;3.58;;;2.10;;
66185;SDS011;58178;49.552;27.922;2022-08-19T13:12:50;7.82;;;2.13;;
66185;SDS011;58178;49.552;27.922;2022-08-19T13:15:18;2.90;;;2.15;;
66185;SDS011;58178;49.552;27.922;2022-08-19T13:17:45;4.97;;;2.20;;
66185;SDS011;58178;49.552;27.922;2022-08-19T13:20:15;6.50;;;2.75;;
66185;SDS011;58178;49.552;27.922;2022-08-19T13:22:42;5.05;;;1.77;;
66185;SDS011;58178;49.552;27.922;2022-08-19T13:25:10;1.92;;;1.73;;
66185;SDS011;58178;49.552;27.922;2022-08-19T13:27:36;6.78;;;2.20;;
66185;SDS011;58178;49.552;27.922;2022-08-19T13:30:02;7.90;;;2.25;;
66185;SDS011;58178;49.552;27.922;2022-08-19T13:32:48;5.05;;;1.98;;
66185;SDS011;58178;49.552;27.922;2022-08-19T13:35:34;5.85;;;2.47;;
66185;SDS011;58178;49.552;27.922;2022-08-19T13:38:00;3.83;;;2.00;;
66185;SDS011;58178;49.552;27.922;2022-08-19T13:40:29;2.45;;;1.67;;
66185;SDS011;58178;49.552;27.922;2022-08-19T13:42:59;3.95;;;1.60;;
66185;SDS011;58178;49.552;27.922;2022-08-19T13:45:26;3.90;;;1.70;;
66185;SDS011;58178;49.552;27.922;2022-08-19T13:47:54;2.33;;;1.70;;
66185;SDS011;58178;49.552;27.922;2022-08-19T13:50:22;4.97;;;1.67;;
66185;SDS011;58178;49.552;27.922;2022-08-19T13:52:50;6.05;;;2.15;;
66185;SDS011;58178;49.552;27.922;2022-08-19T13:55:17;2.40;;;1.83;;
66185;SDS011;58178;49.552;27.922;2022-08-19T13:57:42;3.42;;;2.00;;
66185;SDS011;58178;49.552;27.922;2022-08-19T14:00:09;3.35;;;1.70;;
66185;SDS011;58178;49.552;27.922;2022-08-19T14:02:40;5.65;;;2.40;;
66185;SDS011;58178;49.552;27.922;2022-08-19T14:05:07;5.60;;;1.90;;
66185;SDS011;58178;49.552;27.922;2022-08-19T14:07:35;6.60;;;2.08;;
66185;SDS011;58178;49.552;27.922;2022-08-19T14:10:01;4.65;;;1.88;;
66185;SDS011;58178;49.552;27.922;2022-08-19T14:12:28;7.03;;;1.58;;
66185;SDS011;58178;49.552;27.922;2022-08-19T14:14:54;1.63;;;1.50;;
66185;SDS011;58178;49.552;27.922;2022-08-19T14:17:20;3.92;;;1.90;;
66185;SDS011;58178;49.552;27.922;2022-08-19T14:19:46;4.55;;;1.50;;
66185;SDS011;58178;49.552;27.922;2022-08-19T14:22:12;4.50;;;1.48;;
66185;SDS011;58178;49.552;27.922;2022-08-19T14:24:38;3.28;;;1.75;;
66185;SDS011;58178;49.552;27.922;2022-08-19T14:27:07;2.42;;;1.90;;
66185;SDS011;58178;49.552;27.922;2022-08-19T14:29:33;4.18;;;1.98;;
66185;SDS011;58178;49.552;27.922;2022-08-19T14:31:59;2.22;;;1.92;;
66185;SDS011;58178;49.552;27.922;2022-08-19T14:34:25;2.55;;;1.75;;
66185;SDS011;58178;49.552;27.922;2022-08-19T14:36:51;4.30;;;1.67;;
66185;SDS011;58178;49.552;27.922;2022-08-19T14:39:17;5.65;;;1.90;;
66185;SDS011;58178;49.552;27.922;2022-08-19T14:41:43;2.47;;;1.85;;
66185;SDS011;58178;49.552;27.922;2022-08-19T14:44:11;2.70;;;1.80;;